createdAt,value
2023-06-04T00:00:04.670Z,98249.41
2023-06-04T00:02:32.076Z,98252.16
2023-06-04T00:04:58.723Z,98247.94
2023-06-04T00:07:25.180Z,98253.41
2023-06-04T00:09:51.691Z,98249.53
2023-06-04T00:12:18.172Z,98241.59
2023-06-04T00:14:44.909Z,98240.31
2023-06-04T00:17:11.700Z,98256.75
2023-06-04T00:19:41.850Z,98254.41
2023-06-04T00:22:08.975Z,98257.38
2023-06-04T00:24:36.474Z,98259.19
2023-06-04T00:27:03.052Z,98251.56
2023-06-04T00:29:29.662Z,98252.97
2023-06-04T00:31:56.254Z,98254.03
2023-06-04T00:34:23.589Z,98249.72
2023-06-04T00:36:50.128Z,98246.41
2023-06-04T00:39:16.733Z,98253.22
2023-06-04T00:41:43.274Z,98251.91
2023-06-04T00:44:09.940Z,98254.38
2023-06-04T00:46:39.530Z,98251.94
2023-06-04T00:49:07.314Z,98268.97
2023-06-04T00:51:33.983Z,98262.72
2023-06-04T00:54:02.674Z,98259.31
2023-06-04T00:56:29.432Z,98257.22
2023-06-04T00:58:57.390Z,98259.47
2023-06-04T01:01:43.765Z,98254.38
2023-06-04T01:04:17.324Z,98251.84
2023-06-04T01:06:51.168Z,98250.94
2023-06-04T01:09:19.053Z,98257.91
2023-06-04T01:11:45.509Z,98259.88
2023-06-04T01:14:12.048Z,98253.22
2023-06-04T01:17:02.326Z,98261.81
2023-06-04T01:19:55.768Z,98257.63
2023-06-04T01:22:46.198Z,98256.56
2023-06-04T01:25:29.084Z,98234.03
2023-06-04T01:27:57.996Z,98259.63
2023-06-04T01:30:27.728Z,98257.78
2023-06-04T01:32:55.521Z,98261.50
2023-06-04T01:35:23.285Z,98263.63
2023-06-04T01:37:50.886Z,98262.16
2023-06-04T01:40:17.881Z,98260.88
2023-06-04T01:46:56.168Z,98260.44
2023-06-04T01:49:22.719Z,98256.78
2023-06-04T01:51:49.162Z,98255.56
2023-06-04T01:54:15.873Z,98261.91
2023-06-04T01:56:42.357Z,98262.88
2023-06-04T01:59:08.962Z,98265.38
2023-06-04T02:01:35.774Z,98265.56
2023-06-04T02:04:02.502Z,98258.72
2023-06-04T02:06:30.952Z,98264.16
2023-06-04T02:08:57.997Z,98274.63
2023-06-04T02:11:24.539Z,98263.59
2023-06-04T02:13:51.325Z,98257.72
2023-06-04T02:16:17.817Z,98267.75
2023-06-04T02:18:44.312Z,98260.44
2023-06-04T02:21:10.841Z,98256.75
2023-06-04T02:23:37.528Z,98254.34
2023-06-04T02:26:03.975Z,98254.03
2023-06-04T02:28:30.533Z,98258.56
2023-06-04T02:30:57.644Z,98253.13
2023-06-04T02:33:24.112Z,98257.66
2023-06-04T02:35:51.084Z,98266.91
2023-06-04T02:38:17.636Z,98263.31
2023-06-04T02:40:45.043Z,98266.66
2023-06-04T02:43:12.072Z,98258.06
2023-06-04T02:45:38.723Z,98262.38
2023-06-04T02:48:05.475Z,98262.38
2023-06-04T02:50:32.191Z,98265.84
2023-06-04T02:52:58.671Z,98262.41
2023-06-04T02:55:26.123Z,98261.00
2023-06-04T02:57:53.045Z,98250.97
2023-06-04T03:00:19.808Z,98260.88
2023-06-04T03:02:47.796Z,98274.72
2023-06-04T03:05:18.327Z,98269.97
2023-06-04T03:07:46.720Z,98271.25
2023-06-04T03:10:15.775Z,98273.13
2023-06-04T03:12:42.407Z,98276.28
2023-06-04T03:15:10.556Z,98271.75
2023-06-04T03:17:37.241Z,98267.78
2023-06-04T03:20:05.817Z,98268.47
2023-06-04T03:22:32.496Z,98271.03
2023-06-04T03:24:59.163Z,98270.81
2023-06-04T03:27:25.827Z,98275.13
2023-06-04T03:29:52.419Z,98274.16
2023-06-04T03:32:19.155Z,98273.59
2023-06-04T03:34:47.420Z,98273.69
2023-06-04T03:37:13.923Z,98272.41
2023-06-04T03:39:40.884Z,98277.97
2023-06-04T03:42:10.234Z,98265.78
2023-06-04T03:44:37.112Z,98270.06
2023-06-04T03:47:05.149Z,98263.44
2023-06-04T03:49:32.046Z,98276.56
2023-06-04T03:51:58.594Z,98275.53
2023-06-04T03:54:25.453Z,98267.16
2023-06-04T03:56:52.623Z,98274.38
2023-06-04T03:59:19.289Z,98218.47
2023-06-04T04:01:46.955Z,98279.06
2023-06-04T04:04:13.701Z,98277.66
2023-06-04T04:06:40.218Z,98273.94
2023-06-04T04:09:07.869Z,98279.56
2023-06-04T04:11:35.827Z,98280.09
2023-06-04T04:14:02.837Z,98284.53
2023-06-04T04:16:29.402Z,98287.50
2023-06-04T04:18:57.016Z,98289.34
2023-06-04T04:21:24.298Z,98280.75
2023-06-04T04:23:52.462Z,98289.09
2023-06-04T04:26:19.819Z,98293.28
2023-06-04T04:28:49.377Z,98294.56
2023-06-04T04:31:16.664Z,98300.16
2023-06-04T04:33:44.442Z,98294.47
2023-06-04T04:36:15.553Z,98295.63
2023-06-04T04:38:47.162Z,98296.34
2023-06-04T04:41:14.243Z,98292.75
2023-06-04T04:43:41.465Z,98290.38
2023-06-04T04:46:19.565Z,98296.97
2023-06-04T04:48:46.255Z,98286.59
2023-06-04T04:51:12.721Z,98289.88
2023-06-04T04:53:39.236Z,98283.53
2023-06-04T04:56:07.935Z,98295.31
2023-06-04T04:58:37.491Z,98289.44
2023-06-04T05:01:04.104Z,98289.03
2023-06-04T05:03:31.241Z,98295.31
2023-06-04T05:05:57.848Z,98299.47
2023-06-04T05:08:24.522Z,98300.88
2023-06-04T05:10:52.084Z,98298.69
2023-06-04T05:13:18.869Z,98297.75
2023-06-04T05:15:53.697Z,98297.19
2023-06-04T05:18:22.921Z,98296.81
2023-06-04T05:20:50.688Z,98304.16
2023-06-04T05:23:18.190Z,98301.91
2023-06-04T05:25:50.049Z,98314.69
2023-06-04T05:28:17.213Z,98312.88
2023-06-04T05:30:44.672Z,98320.44
2023-06-04T05:33:19.299Z,98308.91
2023-06-04T05:36:01.169Z,98274.31
2023-06-04T05:38:32.589Z,98306.91
2023-06-04T05:41:04.357Z,98310.94
2023-06-04T05:43:34.175Z,98312.78
2023-06-04T05:46:00.927Z,98310.81
2023-06-04T05:48:27.649Z,98305.03
2023-06-04T05:50:54.184Z,98304.66
2023-06-04T05:53:21.100Z,98303.34
2023-06-04T05:55:49.168Z,98308.75
2023-06-04T05:58:15.936Z,98294.44
2023-06-04T06:00:42.476Z,98310.69
2023-06-04T06:03:11.502Z,98316.56
2023-06-04T06:05:44.126Z,98316.25
2023-06-04T06:08:10.735Z,98324.28
2023-06-04T06:10:37.608Z,98306.50
2023-06-04T06:13:04.278Z,98312.94
2023-06-04T06:15:30.992Z,98323.63
2023-06-04T06:17:58.223Z,98325.31
2023-06-04T06:20:24.883Z,98251.28
2023-06-04T06:22:52.089Z,98325.41
2023-06-04T06:25:20.477Z,98329.84
2023-06-04T06:27:56.202Z,98326.81
2023-06-04T06:30:24.168Z,98324.63
2023-06-04T06:32:51.924Z,98327.91
2023-06-04T06:35:19.446Z,98328.75
2023-06-04T06:37:46.015Z,98332.81
2023-06-04T06:40:12.534Z,98342.22
2023-06-04T06:42:39.208Z,98346.53
2023-06-04T06:45:06.480Z,98335.28
2023-06-04T06:47:33.160Z,98341.44
2023-06-04T06:49:59.673Z,98322.22
2023-06-04T06:52:26.222Z,98344.97
2023-06-04T06:54:53.772Z,98347.94
2023-06-04T06:57:20.248Z,98349.03
2023-06-04T06:59:46.715Z,98338.31
2023-06-04T07:02:13.475Z,98341.00
2023-06-04T07:04:39.984Z,98342.94
2023-06-04T07:07:06.685Z,98343.47
2023-06-04T07:09:33.135Z,98346.81
2023-06-04T07:11:59.580Z,98355.72
2023-06-04T07:14:26.337Z,98355.78
2023-06-04T07:16:52.873Z,98357.38
2023-06-04T07:19:19.480Z,98353.47
2023-06-04T07:21:46.134Z,98350.56
2023-06-04T07:24:12.753Z,98357.09
2023-06-04T07:26:39.321Z,98351.34
2023-06-04T07:29:06.405Z,98348.84
2023-06-04T07:31:33.012Z,98350.09
2023-06-04T07:33:59.659Z,98351.78
2023-06-04T07:36:26.185Z,98354.00
2023-06-04T07:38:52.645Z,98362.81
2023-06-04T07:41:19.111Z,98361.22
2023-06-04T07:43:46.162Z,98357.53
2023-06-04T07:46:12.657Z,98362.03
2023-06-04T07:48:39.147Z,98355.69
2023-06-04T07:51:06.014Z,98358.28
2023-06-04T07:53:32.670Z,98363.28
2023-06-04T07:55:59.298Z,98352.06
2023-06-04T07:58:26.375Z,98363.66
2023-06-04T08:00:54.250Z,98358.75
2023-06-04T08:03:21.747Z,98354.16
2023-06-04T08:05:48.546Z,98353.75
2023-06-04T08:08:15.160Z,98351.13
2023-06-04T08:10:41.977Z,98327.13
2023-06-04T08:13:09.680Z,98350.22
2023-06-04T08:15:36.477Z,98346.22
2023-06-04T08:18:03.038Z,98350.72
2023-06-04T08:20:29.654Z,98348.63
2023-06-04T08:22:56.106Z,98345.56
2023-06-04T08:25:22.871Z,98348.66
2023-06-04T08:27:49.355Z,98346.28
2023-06-04T08:30:16.019Z,98353.34
2023-06-04T08:32:42.562Z,98348.41
2023-06-04T08:35:09.322Z,98351.69
2023-06-04T08:37:36.810Z,98360.94
2023-06-04T08:40:05.945Z,98360.56
2023-06-04T08:42:39.298Z,98325.50
2023-06-04T08:45:08.061Z,98357.13
2023-06-04T08:47:35.991Z,98364.72
2023-06-04T08:50:03.317Z,98372.53
2023-06-04T08:52:30.433Z,98368.03
2023-06-04T08:54:57.833Z,98363.03
2023-06-04T08:57:24.476Z,98379.25
2023-06-04T08:59:51.053Z,98370.22
2023-06-04T09:02:17.830Z,98352.31
2023-06-04T09:04:45.674Z,98363.34
2023-06-04T09:07:15.322Z,98369.38
2023-06-04T09:09:46.024Z,98366.50
2023-06-04T09:12:25.381Z,98339.56
2023-06-04T09:14:51.979Z,98364.16
2023-06-04T09:17:25.498Z,98368.69
2023-06-04T09:19:52.418Z,98322.97
2023-06-04T09:22:18.910Z,98357.78
2023-06-04T09:24:53.862Z,98379.97
2023-06-04T09:27:23.248Z,98300.97
2023-06-04T09:29:54.932Z,98390.41
2023-06-04T09:32:25.645Z,98368.66
2023-06-04T09:34:53.866Z,98376.69
2023-06-04T09:37:22.922Z,98378.84
2023-06-04T09:39:58.691Z,98372.50
2023-06-04T09:42:25.151Z,98368.59
2023-06-04T09:44:51.848Z,98372.19
2023-06-04T09:47:18.319Z,98373.19
2023-06-04T09:49:51.798Z,98372.19
2023-06-04T09:52:18.418Z,98376.31
2023-06-04T09:54:45.122Z,98368.44
2023-06-04T09:57:19.180Z,98366.47
2023-06-04T09:59:49.670Z,98362.66
2023-06-04T10:02:23.273Z,98360.88
2023-06-04T10:04:58.337Z,98370.22
2023-06-04T10:07:27.888Z,98364.75
2023-06-04T10:09:55.209Z,98358.91
2023-06-04T10:12:29.976Z,98367.44
2023-06-04T10:15:02.973Z,98361.22
2023-06-04T10:17:31.068Z,98357.53
2023-06-04T10:20:00.844Z,98365.31
2023-06-04T10:22:29.656Z,98349.06
2023-06-04T10:24:56.097Z,98360.19
2023-06-04T10:27:23.731Z,98362.53
2023-06-04T10:29:50.964Z,98357.56
2023-06-04T10:32:18.017Z,98353.28
2023-06-04T10:34:44.596Z,98365.31
2023-06-04T10:37:24.565Z,98357.75
2023-06-04T10:39:55.284Z,98367.72
2023-06-04T10:42:22.818Z,98361.06
2023-06-04T10:44:51.094Z,98360.81
2023-06-04T10:47:28.436Z,98363.25
2023-06-04T10:49:56.088Z,98356.75
2023-06-04T10:52:23.053Z,98359.81
2023-06-04T10:54:49.771Z,98363.38
2023-06-04T10:57:20.024Z,98353.53
2023-06-04T10:59:56.416Z,98356.25
2023-06-04T11:02:23.008Z,98352.38
2023-06-04T11:05:02.432Z,98363.72
2023-06-04T11:07:29.186Z,98363.28
2023-06-04T11:09:56.649Z,98357.50
2023-06-04T11:12:23.276Z,98357.59
2023-06-04T11:14:56.986Z,98358.16
2023-06-04T11:17:23.716Z,98357.44
2023-06-04T11:19:50.421Z,98354.13
2023-06-04T11:22:16.912Z,98354.28
2023-06-04T11:24:43.408Z,98332.00
2023-06-04T11:27:17.539Z,98342.75
2023-06-04T11:29:52.561Z,98343.22
2023-06-04T11:32:23.712Z,98352.38
2023-06-04T11:34:50.585Z,98344.16
2023-06-04T11:37:17.046Z,98350.88
2023-06-04T11:39:45.468Z,98349.09
2023-06-04T11:42:12.080Z,98349.34
2023-06-04T11:44:39.393Z,98346.78
2023-06-04T11:47:09.123Z,98344.06
2023-06-04T11:49:37.578Z,98348.06
2023-06-04T11:52:05.209Z,98342.03
2023-06-04T11:54:37.809Z,98309.69
2023-06-04T11:57:06.024Z,98345.88
2023-06-04T11:59:33.063Z,98346.47
2023-06-04T12:01:59.658Z,98344.13
2023-06-04T12:04:31.053Z,98337.31
2023-06-04T12:07:03.414Z,98338.31
2023-06-04T12:09:33.326Z,98337.19
2023-06-04T12:12:01.416Z,98313.72
2023-06-04T12:14:29.566Z,98304.84
2023-06-04T12:17:10.002Z,98332.44
2023-06-04T12:19:49.336Z,98324.88
2023-06-04T12:22:16.041Z,98334.88
2023-06-04T12:24:56.892Z,98307.38
2023-06-04T12:27:24.838Z,98330.13
2023-06-04T12:29:57.529Z,98322.28
2023-06-04T12:32:24.116Z,98308.63
2023-06-04T12:34:50.730Z,98318.22
2023-06-04T12:37:17.303Z,98277.44
2023-06-04T12:39:44.041Z,98317.25
2023-06-04T12:42:10.635Z,98323.00
2023-06-04T12:44:39.016Z,98319.19
2023-06-04T12:47:05.941Z,98324.28
2023-06-04T12:49:32.521Z,98335.41
2023-06-04T12:51:59.331Z,98314.69
2023-06-04T12:54:26.115Z,98308.66
2023-06-04T12:56:52.631Z,98333.09
2023-06-04T12:59:19.107Z,98319.81
2023-06-04T13:01:45.787Z,98324.47
2023-06-04T13:04:12.652Z,98320.69
2023-06-04T13:06:39.189Z,98320.84
2023-06-04T13:09:10.539Z,98324.28
2023-06-04T13:11:41.185Z,98311.06
2023-06-04T13:14:08.494Z,98307.97
2023-06-04T13:16:35.092Z,98306.28
2023-06-04T13:19:01.615Z,98311.41
2023-06-04T13:21:30.496Z,98268.13
2023-06-04T13:23:57.355Z,98317.06
2023-06-04T13:26:23.953Z,98311.78
2023-06-04T13:28:50.519Z,98313.09
2023-06-04T13:31:16.961Z,98322.28
2023-06-04T13:33:43.783Z,98312.22
2023-06-04T13:36:10.236Z,98312.81
2023-06-04T13:38:36.806Z,98317.81
2023-06-04T13:41:03.285Z,98316.63
2023-06-04T13:43:29.854Z,98323.97
2023-06-04T13:45:56.390Z,98309.94
2023-06-04T13:48:22.940Z,98313.16
2023-06-04T13:50:49.545Z,98322.16
2023-06-04T13:53:16.024Z,98320.28
2023-06-04T13:55:42.570Z,98319.28
2023-06-04T13:58:09.044Z,98316.28
2023-06-04T14:00:35.809Z,98311.06
2023-06-04T14:03:02.541Z,98307.75
2023-06-04T14:05:29.085Z,98303.09
2023-06-04T14:07:55.853Z,98304.00
2023-06-04T14:10:22.334Z,98302.47
2023-06-04T14:12:48.826Z,98299.97
2023-06-04T14:15:15.296Z,98301.53
2023-06-04T14:17:42.110Z,98292.06
2023-06-04T14:20:09.674Z,98300.53
2023-06-04T14:22:37.442Z,98300.03
2023-06-04T14:25:08.336Z,98287.41
2023-06-04T14:27:36.459Z,98300.63
2023-06-04T14:30:06.706Z,98280.94
2023-06-04T14:32:34.876Z,98258.69
2023-06-04T14:35:01.595Z,98285.44
2023-06-04T14:37:28.151Z,98281.13
2023-06-04T14:39:54.647Z,98283.22
2023-06-04T14:42:21.106Z,98289.56
2023-06-04T14:44:47.685Z,98289.13
2023-06-04T14:47:14.273Z,98291.97
2023-06-04T14:49:40.922Z,98282.66
2023-06-04T14:52:07.478Z,98277.94
2023-06-04T14:54:34.882Z,98250.97
2023-06-04T14:57:02.023Z,98264.00
2023-06-04T14:59:29.274Z,98267.25
2023-06-04T15:01:56.068Z,98265.91
2023-06-04T15:04:23.604Z,98261.44
2023-06-04T15:06:50.642Z,98268.94
2023-06-04T15:09:17.078Z,98269.66
2023-06-04T15:11:43.636Z,98265.25
2023-06-04T15:14:10.392Z,98173.69
2023-06-04T15:16:36.964Z,98266.78
2023-06-04T15:19:03.655Z,98265.03
2023-06-04T15:21:30.349Z,98263.00
2023-06-04T15:23:56.957Z,98269.59
2023-06-04T15:26:25.090Z,98265.34
2023-06-04T15:28:51.771Z,98270.19
2023-06-04T15:31:18.252Z,98268.50
2023-06-04T15:33:45.413Z,98265.13
2023-06-04T15:36:12.082Z,98262.47
2023-06-04T15:38:38.540Z,98256.38
2023-06-04T15:41:05.136Z,98259.41
2023-06-04T15:43:31.650Z,98258.81
2023-06-04T15:45:58.177Z,98265.66
2023-06-04T15:48:27.523Z,98259.34
2023-06-04T15:50:54.245Z,98249.44
2023-06-04T15:53:20.826Z,98253.41
2023-06-04T15:55:47.349Z,98248.94
2023-06-04T15:58:13.847Z,98199.28
2023-06-04T16:00:40.361Z,98247.97
2023-06-04T16:03:06.883Z,98233.50
2023-06-04T16:05:33.633Z,98239.31
2023-06-04T16:08:01.080Z,98220.75
2023-06-04T16:10:27.641Z,98237.06
2023-06-04T16:12:54.388Z,98234.19
2023-06-04T16:15:20.932Z,98238.56
2023-06-04T16:17:48.793Z,98226.59
2023-06-04T16:20:16.508Z,98210.53
2023-06-04T16:22:43.052Z,98230.94
2023-06-04T16:25:10.085Z,98232.25
2023-06-04T16:27:36.568Z,98234.44
2023-06-04T16:30:05.423Z,98230.47
2023-06-04T16:32:31.989Z,98155.84
2023-06-04T16:34:58.553Z,98220.78
2023-06-04T16:37:25.156Z,98229.06
2023-06-04T16:39:51.654Z,98234.69
2023-06-04T16:42:18.142Z,98223.13
2023-06-04T16:44:44.633Z,98229.25
2023-06-04T16:47:11.157Z,98230.13
2023-06-04T16:49:37.596Z,98225.56
2023-06-04T16:52:05.103Z,98228.56
2023-06-04T16:54:31.584Z,98217.03
2023-06-04T16:56:59.369Z,98227.72
2023-06-04T16:59:31.128Z,98225.34
2023-06-04T17:01:58.294Z,98223.66
2023-06-04T17:04:24.806Z,98219.13
2023-06-04T17:06:51.350Z,98215.66
2023-06-04T17:09:17.794Z,98216.88
2023-06-04T17:11:44.738Z,98219.28
2023-06-04T17:14:11.241Z,98220.53
2023-06-04T17:16:37.762Z,98212.97
2023-06-04T17:19:04.354Z,98223.97
2023-06-04T17:21:30.966Z,98217.09
2023-06-04T17:24:00.460Z,98216.44
2023-06-04T17:26:28.160Z,98226.16
2023-06-04T17:28:54.771Z,98219.81
2023-06-04T17:31:23.790Z,98210.97
2023-06-04T17:33:51.582Z,98216.59
2023-06-04T17:36:20.691Z,98223.41
2023-06-04T17:38:48.881Z,98217.25
2023-06-04T17:41:16.033Z,98221.34
2023-06-04T17:43:43.495Z,98219.16
2023-06-04T17:46:10.520Z,98219.00
2023-06-04T17:48:37.555Z,98225.25
2023-06-04T17:51:07.047Z,98220.22
2023-06-04T17:53:33.749Z,98219.28
2023-06-04T17:56:00.331Z,98222.97
2023-06-04T17:58:26.982Z,98227.00
2023-06-04T18:00:53.602Z,98227.38
2023-06-04T18:03:20.113Z,98195.22
2023-06-04T18:05:46.678Z,98226.13
2023-06-04T18:08:13.162Z,98222.53
2023-06-04T18:10:39.900Z,98227.50
2023-06-04T18:13:06.683Z,98232.22
2023-06-04T18:15:33.172Z,98224.09
2023-06-04T18:17:59.851Z,98226.25
2023-06-04T18:20:26.607Z,98221.75
2023-06-04T18:22:53.188Z,98226.50
2023-06-04T18:25:19.679Z,98225.53
2023-06-04T18:27:46.247Z,98226.72
2023-06-04T18:30:14.927Z,98229.13
2023-06-04T18:32:41.502Z,98206.03
2023-06-04T18:35:08.464Z,98237.06
2023-06-04T18:37:35.003Z,98227.03
2023-06-04T18:40:01.523Z,98241.09
2023-06-04T18:42:31.386Z,98211.50
2023-06-04T18:44:58.538Z,98239.53
2023-06-04T18:47:25.732Z,98236.34
2023-06-04T18:49:52.314Z,98238.19
2023-06-04T18:52:18.764Z,98242.16
2023-06-04T18:54:45.645Z,98246.53
2023-06-04T18:57:14.368Z,98243.91
2023-06-04T18:59:41.436Z,98243.31
2023-06-04T19:02:08.036Z,98241.56
2023-06-04T19:04:34.639Z,98237.75
2023-06-04T19:07:03.440Z,98236.94
2023-06-04T19:09:29.900Z,98237.56
2023-06-04T19:11:56.442Z,98247.19
2023-06-04T19:14:22.905Z,98242.47
2023-06-04T19:16:51.781Z,98247.63
2023-06-04T19:19:20.387Z,98248.56
2023-06-04T19:21:53.655Z,98250.53
2023-06-04T19:24:23.807Z,98254.84
2023-06-04T19:26:50.749Z,98262.47
2023-06-04T19:29:17.343Z,98253.13
2023-06-04T19:31:43.880Z,98273.41
2023-06-04T19:34:10.645Z,98271.28
2023-06-04T19:36:37.490Z,98275.91
2023-06-04T19:39:03.981Z,98278.44
2023-06-04T19:41:30.423Z,98285.28
2023-06-04T19:43:56.905Z,98286.16
2023-06-04T19:46:23.447Z,98294.28
2023-06-04T19:48:50.034Z,98295.94
2023-06-04T19:51:16.500Z,98292.16
2023-06-04T19:53:42.993Z,98293.75
2023-06-04T19:56:09.615Z,98290.00
2023-06-04T19:58:36.454Z,98298.63
2023-06-04T20:01:03.334Z,98298.84
2023-06-04T20:03:32.247Z,98307.75
2023-06-04T20:05:58.968Z,98303.72
2023-06-04T20:08:25.450Z,98308.34
2023-06-04T20:10:52.122Z,98305.63
2023-06-04T20:13:18.746Z,98314.03
2023-06-04T20:15:45.536Z,98318.56
2023-06-04T20:18:13.002Z,98316.19
2023-06-04T20:20:39.528Z,98317.75
2023-06-04T20:23:06.198Z,98315.84
2023-06-04T20:25:32.673Z,98322.34
2023-06-04T20:27:59.821Z,98314.75
2023-06-04T20:30:31.437Z,98307.75
2023-06-04T20:32:57.969Z,98321.25
2023-06-04T20:35:24.505Z,98312.03
2023-06-04T20:37:51.074Z,98323.31
2023-06-04T20:40:17.578Z,98318.47
2023-06-04T20:42:44.129Z,98267.66
2023-06-04T20:45:11.496Z,98315.47
2023-06-04T20:47:37.982Z,98322.22
2023-06-04T20:50:04.733Z,98318.34
2023-06-04T20:52:31.267Z,98316.75
2023-06-04T20:54:57.758Z,98327.88
2023-06-04T20:57:24.399Z,98327.88
2023-06-04T20:59:50.945Z,98330.56
2023-06-04T21:02:17.542Z,98323.28
2023-06-04T21:04:44.125Z,98326.50
2023-06-04T21:07:13.547Z,98338.06
2023-06-04T21:09:40.334Z,98335.72
2023-06-04T21:12:07.191Z,98306.72
2023-06-04T21:14:33.778Z,98338.06
2023-06-04T21:17:00.324Z,98334.81
2023-06-04T21:19:29.601Z,98326.41
2023-06-04T21:21:57.215Z,98332.03
2023-06-04T21:24:23.856Z,98344.69
2023-06-04T21:26:50.501Z,98346.25
2023-06-04T21:29:17.034Z,98341.47
2023-06-04T21:31:43.600Z,98310.16
2023-06-04T21:34:10.855Z,98333.91
2023-06-04T21:36:37.423Z,98349.44
2023-06-04T21:39:04.355Z,98345.25
2023-06-04T21:41:30.905Z,98345.34
2023-06-04T21:43:57.393Z,98345.25
2023-06-04T21:46:24.428Z,98356.13
2023-06-04T21:48:50.952Z,98352.16
2023-06-04T21:51:17.522Z,98349.97
2023-06-04T21:53:44.049Z,98347.81
2023-06-04T21:56:10.545Z,98358.19
2023-06-04T21:58:37.113Z,98360.09
2023-06-04T22:01:03.753Z,98349.78
2023-06-04T22:03:30.369Z,98347.59
2023-06-04T22:05:56.893Z,98348.66
2023-06-04T22:08:23.384Z,98347.94
2023-06-04T22:10:49.862Z,98351.81
2023-06-04T22:13:16.576Z,98351.72
2023-06-04T22:15:43.105Z,98355.84
2023-06-04T22:18:09.702Z,98354.09
2023-06-04T22:20:36.219Z,98344.28
2023-06-04T22:23:02.699Z,98352.34
2023-06-04T22:25:29.175Z,98274.50
2023-06-04T22:27:55.758Z,98347.44
2023-06-04T22:30:22.277Z,98350.56
2023-06-04T22:32:48.949Z,98351.09
2023-06-04T22:35:15.581Z,98348.34
2023-06-04T22:37:42.177Z,98362.06
2023-06-04T22:40:09.594Z,98356.50
2023-06-04T22:42:36.190Z,98355.00
2023-06-04T22:45:02.713Z,98358.25
2023-06-04T22:47:30.613Z,98351.81
2023-06-04T22:49:57.368Z,98362.75
2023-06-04T22:52:24.367Z,98354.63
2023-06-04T22:54:50.896Z,98353.72
2023-06-04T22:57:17.444Z,98360.94
2023-06-04T22:59:43.928Z,98356.50
2023-06-04T23:02:10.592Z,98354.91
2023-06-04T23:04:37.729Z,98352.91
2023-06-04T23:07:06.108Z,98353.44
2023-06-04T23:09:32.631Z,98357.66
2023-06-04T23:11:59.132Z,98344.88
2023-06-04T23:14:27.744Z,98346.50
2023-06-04T23:16:54.421Z,98348.13
2023-06-04T23:19:21.063Z,98346.69
2023-06-04T23:21:47.734Z,98352.44
2023-06-04T23:24:14.411Z,98346.34
2023-06-04T23:26:42.072Z,98357.38
2023-06-04T23:29:08.558Z,98344.53
2023-06-04T23:31:35.055Z,98239.84
2023-06-04T23:34:01.658Z,98343.16
2023-06-04T23:36:28.126Z,98338.66
2023-06-04T23:38:54.616Z,98343.38
2023-06-04T23:41:21.071Z,98346.56
2023-06-04T23:43:47.545Z,98346.31
2023-06-04T23:46:14.116Z,98347.78
2023-06-04T23:48:40.799Z,98339.00
2023-06-04T23:51:07.680Z,98342.59
2023-06-04T23:53:34.741Z,98337.88
2023-06-04T23:56:02.229Z,98343.81
2023-06-04T23:58:28.816Z,98337.75
